Observation data for Brownfield on 05/27/2019      Previous  Date  Next       Current Mesonet Observations  Soil Data  Daily Summary Page  Observations in Plain Language
KBWS 270500Z 16007KT 21/17 A2989 RMK A01 T02080167  RH  079%=      5-min Rain = 0
KBWS 270505Z 17007KT 21/17 A2989 RMK A01 T02050166  RH  080%=      5-min Rain = 0
KBWS 270510Z 17007KT 20/17 A2989 RMK A01 T02030166  RH  081%=      5-min Rain = 0
KBWS 270515Z 17007KT 20/17 A2989 RMK A01 T02020166  RH  082%=      5-min Rain = 0
KBWS 270520Z 17007KT 20/17 A2989 RMK A01 T02010166  RH  082%=      5-min Rain = 0
KBWS 270525Z 16005KT 20/17 A299 RMK A01 T01990165  RH  083%=      5-min Rain = 0
KBWS 270530Z 16005KT 20/17 A299 RMK A01 T01970165  RH  084%=      5-min Rain = 0
KBWS 270535Z 16007KT 20/17 A299 RMK A01 T01950165  RH  085%=      5-min Rain = 0
KBWS 270540Z 16007KT 19/16 A2989 RMK A01 T01930164  RH  086%=      5-min Rain = 0
KBWS 270545Z 22006KT 19/16 A2991 RMK A01 T01920164  RH  086%=      5-min Rain = 0
KBWS 270550Z 29014KT 19/17 A2994 RMK A01 T01930165  RH  086%=      5-min Rain = 0
KBWS 270555Z 27008G17KT 20/17 A2993 RMK A01 T02000167  RH  083%=      5-min Rain = 0
KBWS 270600Z 22006KT 20/17 A2992 RMK A01 T02010166  RH  082%=      5-min Rain = 0
KBWS 270605Z 26006KT 20/17 A2992 RMK A01 T02000166  RH  083%=      5-min Rain = 0
KBWS 270610Z 26004KT 20/17 A2992 RMK A01 T01980166  RH  083%=      5-min Rain = 0
KBWS 270615Z 25004KT 20/17 A2992 RMK A01 T01960165  RH  084%=      5-min Rain = 0
KBWS 270620Z 23004KT 19/16 A2991 RMK A01 T01940164  RH  085%=      5-min Rain = 0
KBWS 270625Z 22004KT 19/16 A2991 RMK A01 T01910164  RH  086%=      5-min Rain = 0
KBWS 270630Z 23005KT 19/16 A2991 RMK A01 T01890163  RH  087%=      5-min Rain = 0
KBWS 270635Z 23006KT 19/16 A2991 RMK A01 T01880163  RH  087%=      5-min Rain = 0
KBWS 270640Z 22006KT 19/16 A2991 RMK A01 T01910164  RH  086%=      5-min Rain = 0
KBWS 270645Z 21005KT 19/16 A2991 RMK A01 T01890163  RH  087%=      5-min Rain = 0
KBWS 270650Z 21004KT 19/16 A2991 RMK A01 T01880162  RH  087%=      5-min Rain = 0
KBWS 270655Z 20004KT 19/16 A2991 RMK A01 T01860162  RH  088%=      5-min Rain = 0
KBWS 270700Z 21003KT 19/16 A2991 RMK A01 T01860162  RH  088%=      5-min Rain = 0
KBWS 270705Z 21003KT 19/16 A299 RMK A01 T01850161  RH  088%=      5-min Rain = 0
KBWS 270710Z 21004KT 18/16 A299 RMK A01 T01840161  RH  088%=      5-min Rain = 0
KBWS 270715Z 20004KT 18/16 A299 RMK A01 T01840160  RH  088%=      5-min Rain = 0
KBWS 270720Z 20004KT 18/16 A2989 RMK A01 T01820159  RH  089%=      5-min Rain = 0
KBWS 270725Z 20005KT 18/16 A2989 RMK A01 T01800158  RH  089%=      5-min Rain = 0
KBWS 270730Z 19005KT 18/16 A2989 RMK A01 T01790157  RH  089%=      5-min Rain = 0
KBWS 270735Z 19006KT 18/16 A2989 RMK A01 T01770157  RH  090%=      5-min Rain = 0
KBWS 270740Z 19006KT 18/16 A2989 RMK A01 T01770157  RH  090%=      5-min Rain = 0
KBWS 270745Z 20007KT 18/16 A2989 RMK A01 T01780158  RH  090%=      5-min Rain = 0
KBWS 270750Z 20007KT 18/16 A2988 RMK A01 T01810158  RH  089%=      5-min Rain = 0
KBWS 270755Z 20008KT 18/16 A2988 RMK A01 T01830159  RH  088%=      5-min Rain = 0
KBWS 270800Z 20008KT 19/16 A2988 RMK A01 T01860160  RH  087%=      5-min Rain = 0
KBWS 270805Z 20008KT 19/16 A2988 RMK A01 T01870161  RH  087%=      5-min Rain = 0
KBWS 270810Z 20008KT 19/16 A2988 RMK A01 T01880161  RH  086%=      5-min Rain = 0
KBWS 270815Z 20008KT 19/16 A2987 RMK A01 T01880161  RH  086%=      5-min Rain = 0
KBWS 270820Z 20008KT 19/16 A2987 RMK A01 T01880162  RH  086%=      5-min Rain = 0
KBWS 270825Z 19009KT 19/16 A2987 RMK A01 T01920164  RH  086%=      5-min Rain = 0
KBWS 270830Z 19009KT 19/17 A2987 RMK A01 T01930165  RH  085%=      5-min Rain = 0
KBWS 270835Z 18010KT 19/17 A2987 RMK A01 T01940166  RH  086%=      5-min Rain = 0
KBWS 270840Z 18011KT 20/17 A2987 RMK A01 T01950167  RH  085%=      5-min Rain = 0
KBWS 270845Z 18011KT 20/17 A2987 RMK A01 T01970168  RH  085%=      5-min Rain = 0
KBWS 270850Z 18011KT 20/17 A2986 RMK A01 T01960168  RH  086%=      5-min Rain = 0
KBWS 270855Z 17010KT 20/17 A2986 RMK A01 T01950168  RH  086%=      5-min Rain = 0
KBWS 270900Z 17010KT 19/17 A2986 RMK A01 T01930167  RH  087%=      5-min Rain = 0
KBWS 270905Z 17011KT 19/17 A2986 RMK A01 T01910167  RH  088%=      5-min Rain = 0
KBWS 270910Z 17011KT 19/17 A2986 RMK A01 T01890166  RH  089%=      5-min Rain = 0
KBWS 270915Z 17010KT 19/17 A2986 RMK A01 T01880166  RH  089%=      5-min Rain = 0
KBWS 270920Z 17010KT 19/17 A2986 RMK A01 T01880167  RH  089%=      5-min Rain = 0
KBWS 270925Z 17010KT 19/17 A2986 RMK A01 T01870167  RH  090%=      5-min Rain = 0
KBWS 270930Z 17010KT 19/17 A2986 RMK A01 T01870167  RH  090%=      5-min Rain = 0
KBWS 270935Z 17010KT 19/17 A2986 RMK A01 T01870167  RH  090%=      5-min Rain = 0
KBWS 270940Z 17010KT 19/17 A2986 RMK A01 T01880168  RH  090%=      5-min Rain = 0
KBWS 270945Z 17010KT 19/17 A2986 RMK A01 T01880169  RH  091%=      5-min Rain = 0
KBWS 270950Z 17010KT 19/17 A2986 RMK A01 T01880169  RH  091%=      5-min Rain = 0
KBWS 270955Z 17010KT 19/17 A2986 RMK A01 T01870169  RH  091%=      5-min Rain = 0
KBWS 271000Z 17010KT 19/17 A2986 RMK A01 T01870170  RH  092%=      5-min Rain = 0
KBWS 271005Z 17009KT 19/17 A2986 RMK A01 T01870170  RH  092%=      5-min Rain = 0
KBWS 271010Z 17009KT 19/17 A2986 RMK A01 T01860170  RH  092%=      5-min Rain = 0
KBWS 271015Z 17009KT 19/17 A2987 RMK A01 T01860170  RH  093%=      5-min Rain = 0
KBWS 271020Z 17010KT 19/17 A2987 RMK A01 T01860170  RH  093%=      5-min Rain = 0
KBWS 271025Z 17009KT 19/17 A2987 RMK A01 T01850170  RH  093%=      5-min Rain = 0
KBWS 271030Z 17008KT 18/17 A2987 RMK A01 T01840170  RH  093%=      5-min Rain = 0
KBWS 271035Z 17009KT 19/17 A2987 RMK A01 T01850171  RH  093%=      5-min Rain = 0
KBWS 271040Z 17009KT 19/17 A2987 RMK A01 T01850170  RH  093%=      5-min Rain = 0
KBWS 271045Z 17009KT 18/17 A2987 RMK A01 T01840170  RH  094%=      5-min Rain = 0
KBWS 271050Z 17009KT 18/17 A2987 RMK A01 T01840170  RH  094%=      5-min Rain = 0
KBWS 271055Z 17009KT 18/17 A2987 RMK A01 T01840170  RH  094%=      5-min Rain = 0
KBWS 271100Z 18009KT 18/17 A2987 RMK A01 T01840170  RH  094%=      5-min Rain = 0
KBWS 271105Z 18009KT 18/17 A2987 RMK A01 T01840170  RH  094%=      5-min Rain = 0
KBWS 271110Z 18008KT 18/17 A2987 RMK A01 T01830170  RH  094%=      5-min Rain = 0
KBWS 271115Z 18008KT 18/17 A2988 RMK A01 T01830170  RH  094%=      5-min Rain = 0
KBWS 271120Z 18007KT 18/17 A2988 RMK A01 T01820169  RH  094%=      5-min Rain = 0
KBWS 271125Z 18007KT 18/17 A2988 RMK A01 T01810168  RH  095%=      5-min Rain = 0
KBWS 271130Z 18008KT 18/17 A2988 RMK A01 T01800168  RH  095%=      5-min Rain = 0
KBWS 271135Z 18007KT 18/17 A2988 RMK A01 T01790167  RH  095%=      5-min Rain = 0
KBWS 271140Z 18007KT 18/17 A2988 RMK A01 T01790167  RH  095%=      5-min Rain = 0
KBWS 271145Z 18008KT 18/17 A2988 RMK A01 T01790167  RH  095%=      5-min Rain = 0
KBWS 271150Z 18008KT 18/17 A2988 RMK A01 T01780167  RH  095%=      5-min Rain = 0
KBWS 271155Z 18008KT 18/17 A2988 RMK A01 T01780167  RH  095%=      5-min Rain = 0
KBWS 271200Z 18008KT 18/17 A2988 RMK A01 T01770166  RH  096%=      5-min Rain = 0
KBWS 271205Z 18008KT 18/17 A2988 RMK A01 T01770166  RH  096%=      5-min Rain = 0
KBWS 271210Z 19008KT 18/17 A2988 RMK A01 T01780167  RH  095%=      5-min Rain = 0
KBWS 271215Z 19008KT 18/17 A2989 RMK A01 T01790168  RH  095%=      5-min Rain = 0
KBWS 271220Z 19009KT 18/17 A2989 RMK A01 T01810169  RH  095%=      5-min Rain = 0
KBWS 271225Z 19009KT 18/17 A2989 RMK A01 T01830170  RH  094%=      5-min Rain = 0
KBWS 271230Z 20009KT 18/17 A2989 RMK A01 T01840171  RH  094%=      5-min Rain = 0
KBWS 271235Z 20009KT 19/17 A2989 RMK A01 T01860171  RH  094%=      5-min Rain = 0
KBWS 271240Z 20009KT 19/17 A2989 RMK A01 T01870172  RH  093%=      5-min Rain = 0
KBWS 271245Z 20010KT 19/17 A2989 RMK A01 T01880173  RH  093%=      5-min Rain = 0
KBWS 271250Z 20009KT 19/17 A299 RMK A01 T01890173  RH  093%=      5-min Rain = 0
KBWS 271255Z 20009KT 19/18 A299 RMK A01 T01910175  RH  093%=      5-min Rain = 0
KBWS 271300Z 20009KT 19/18 A299 RMK A01 T01920175  RH  092%=      5-min Rain = 0
KBWS 271305Z 20008KT 19/18 A299 RMK A01 T01940177  RH  092%=      5-min Rain = 0
KBWS 271310Z 20009KT 20/18 A299 RMK A01 T01960177  RH  091%=      5-min Rain = 0
KBWS 271315Z 20011KT 20/18 A299 RMK A01 T01980178  RH  090%=      5-min Rain = 0
KBWS 271320Z 20011KT 20/18 A299 RMK A01 T02010179  RH  089%=      5-min Rain = 0
KBWS 271325Z 21012KT 20/18 A299 RMK A01 T02020179  RH  089%=      5-min Rain = 0
KBWS 271330Z 21013KT 21/18 A299 RMK A01 T02050179  RH  088%=      5-min Rain = 0
KBWS 271335Z 21014KT 21/18 A299 RMK A01 T02060179  RH  086%=      5-min Rain = 0
KBWS 271340Z 21013G18KT 21/18 A299 RMK A01 T02090179  RH  085%=      5-min Rain = 0
KBWS 271345Z 21015KT 21/18 A299 RMK A01 T02110178  RH  083%=      5-min Rain = 0
KBWS 271350Z 22013G19KT 21/18 A299 RMK A01 T02130178  RH  082%=      5-min Rain = 0
KBWS 271355Z 21015G20KT 21/18 A299 RMK A01 T02140176  RH  081%=      5-min Rain = 0
KBWS 271400Z 22017KT 22/17 A299 RMK A01 T02150173  RH  079%=      5-min Rain = 0
KBWS 271405Z 22016KT 22/17 A299 RMK A01 T02180173  RH  077%=      5-min Rain = 0
KBWS 271410Z 22015KT 22/17 A299 RMK A01 T02220172  RH  075%=      5-min Rain = 0
KBWS 271415Z 22015KT 23/17 A2989 RMK A01 T02250169  RH  072%=      5-min Rain = 0
KBWS 271420Z 21014KT 23/17 A2989 RMK A01 T02300168  RH  070%=      5-min Rain = 0
KBWS 271425Z 22014KT 23/17 A299 RMK A01 T02340165  RH  067%=      5-min Rain = 0
KBWS 271430Z 22014KT 24/16 A2989 RMK A01 T02370163  RH  065%=      5-min Rain = 0
KBWS 271435Z 21014KT 24/16 A2989 RMK A01 T02400161  RH  063%=      5-min Rain = 0
KBWS 271440Z 21012KT 25/16 A2989 RMK A01 T02460161  RH  060%=      5-min Rain = 0
KBWS 271445Z 21014KT 25/16 A2989 RMK A01 T02500156  RH  057%=      5-min Rain = 0
KBWS 271450Z 21013KT 25/16 A2989 RMK A01 T02520155  RH  056%=      5-min Rain = 0
KBWS 271455Z 22014KT 25/15 A299 RMK A01 T02540148  RH  053%=      5-min Rain = 0
KBWS 271500Z 21012KT 26/15 A299 RMK A01 T02580151  RH  053%=      5-min Rain = 0
KBWS 271505Z 22014KT 26/14 A299 RMK A01 T02580144  RH  050%=      5-min Rain = 0
KBWS 271510Z 21014KT 26/14 A299 RMK A01 T02620142  RH  049%=      5-min Rain = 0
KBWS 271515Z 22013KT 27/14 A2989 RMK A01 T02670141  RH  047%=      5-min Rain = 0
KBWS 271520Z 22013KT 27/13 A2989 RMK A01 T02670134  RH  045%=      5-min Rain = 0
KBWS 271525Z 22013KT 27/13 A299 RMK A01 T02720127  RH  041%=      5-min Rain = 0
KBWS 271530Z 22013KT 27/12 A299 RMK A01 T02720122  RH  040%=      5-min Rain = 0
KBWS 271535Z 22012G17KT 28/12 A299 RMK A01 T02750120  RH  039%=      5-min Rain = 0
KBWS 271540Z 22012KT 28/11 A2989 RMK A01 T02790113  RH  036%=      5-min Rain = 0
KBWS 271545Z 22011KT 28/11 A2989 RMK A01 T02840110  RH  034%=      5-min Rain = 0
KBWS 271550Z 22012KT 29/10 A2989 RMK A01 T02850100  RH  032%=      5-min Rain = 0
KBWS 271555Z 23011KT 29/09 A2989 RMK A01 T02880092  RH  030%=      5-min Rain = 0
KBWS 271600Z 23011KT 29/08 A2989 RMK A01 T02910084  RH  028%=      5-min Rain = 0
KBWS 271605Z 23013G18KT 30/07 A2989 RMK A01 T02960072  RH  025%=      5-min Rain = 0
KBWS 271610Z 24013KT 30/07 A2989 RMK A01 T02950069  RH  025%=      5-min Rain = 0
KBWS 271615Z 26013KT 30/06 A2989 RMK A01 T03000061  RH  023%=      5-min Rain = 0
KBWS 271620Z 25013KT 30/06 A2989 RMK A01 T03010064  RH  023%=      5-min Rain = 0
KBWS 271625Z 24011KT 30/07 A2989 RMK A01 T03010066  RH  023%=      5-min Rain = 0
KBWS 271630Z 23013G19KT 31/06 A2989 RMK A01 T03070060  RH  021%=      5-min Rain = 0
KBWS 271635Z 23013G18KT 30/06 A2989 RMK A01 T03030056  RH  021%=      5-min Rain = 0
KBWS 271640Z 24013G18KT 31/05 A2989 RMK A01 T03050050  RH  020%=      5-min Rain = 0
KBWS 271645Z 24013G18KT 31/05 A2989 RMK A01 T03090045  RH  019%=      5-min Rain = 0
KBWS 271650Z 24012G17KT 31/05 A2989 RMK A01 T03070045  RH  019%=      5-min Rain = 0
KBWS 271655Z 25014KT 31/04 A2989 RMK A01 T03080042  RH  019%=      5-min Rain = 0
KBWS 271700Z 25013KT 31/04 A2988 RMK A01 T03120042  RH  018%=      5-min Rain = 0
KBWS 271705Z 22009KT 31/04 A2988 RMK A01 T03130044  RH  019%=      5-min Rain = 0
KBWS 271710Z 22013G18KT 32/04 A2988 RMK A01 T03160039  RH  018%=      5-min Rain = 0
KBWS 271715Z 20012KT 31/04 A2988 RMK A01 T03120038  RH  018%=      5-min Rain = 0
KBWS 271720Z 24011G17KT 31/04 A2988 RMK A01 T03140037  RH  018%=      5-min Rain = 0
KBWS 271725Z 24012G19KT 31/03 A2987 RMK A01 T03140031  RH  017%=      5-min Rain = 0
KBWS 271730Z 22011KT 32/03 A2987 RMK A01 T03150028  RH  016%=      5-min Rain = 0
KBWS 271735Z 24013G18KT 32/02 A2987 RMK A01 T03220019  RH  015%=      5-min Rain = 0
KBWS 271740Z 23013KT 32/02 A2987 RMK A01 T03200016  RH  015%=      5-min Rain = 0
KBWS 271745Z 23014KT 32/01 A2987 RMK A01 T03240010  RH  014%=      5-min Rain = 0
KBWS 271750Z 24012G17KT 32/01 A2987 RMK A01 T03240012  RH  014%=      5-min Rain = 0
KBWS 271755Z 21013G21KT 32/01 A2987 RMK A01 T03230011  RH  014%=      5-min Rain = 0
KBWS 271800Z 23014G21KT 32/01 A2987 RMK A01 T03230012  RH  014%=      5-min Rain = 0
KBWS 271805Z 22011G18KT 32/01 A2986 RMK A01 T03240012  RH  014%=      5-min Rain = 0
KBWS 271810Z 21015G24KT 33/01 A2986 RMK A01 T03270013  RH  014%=      5-min Rain = 0
KBWS 271815Z 22015G20KT 33/01 A2986 RMK A01 T03280012  RH  014%=      5-min Rain = 0
KBWS 271820Z 23015KT 32/01 A2986 RMK A01 T03240011  RH  014%=      5-min Rain = 0
KBWS 271825Z 21014G21KT 33/01 A2986 RMK A01 T03260011  RH  014%=      5-min Rain = 0
KBWS 271830Z 20017KT 33/00 A2986 RMK A01 T03300003  RH  013%=      5-min Rain = 0
KBWS 271835Z 22012G18KT 33/01 A2985 RMK A01 T03320014  RH  013%=      5-min Rain = 0
KBWS 271840Z 21017KT 33/01 A2985 RMK A01 T03290009  RH  013%=      5-min Rain = 0
KBWS 271845Z 21014G23KT 33/01 A2985 RMK A01 T03300008  RH  013%=      5-min Rain = 0
KBWS 271850Z 22013G22KT 33/01 A2984 RMK A01 T03340006  RH  013%=      5-min Rain = 0
KBWS 271855Z 20018G25KT 34/M00 A2984 RMK A01 T03381002  RH  012%=      5-min Rain = 0
KBWS 271900Z 21020G26KT 34/M00 A2984 RMK A01 T03351001  RH  012%=      5-min Rain = 0
KBWS 271905Z 21018G24KT 34/M01 A2984 RMK A01 T03351005  RH  012%=      5-min Rain = 0
KBWS 271910Z 20016G25KT 34/M00 A2983 RMK A01 T03401001  RH  012%=      5-min Rain = 0
KBWS 271915Z 21016G26KT 34/M00 A2983 RMK A01 T03361004  RH  012%=      5-min Rain = 0
KBWS 271920Z 21018G24KT 34/M00 A2983 RMK A01 T03381004  RH  011%=      5-min Rain = 0
KBWS 271925Z 21014G24KT 34/M00 A2983 RMK A01 T03391001  RH  012%=      5-min Rain = 0
KBWS 271930Z 20017G25KT 34/M01 A2983 RMK A01 T03411009  RH  011%=      5-min Rain = 0
KBWS 271935Z 19018G23KT 34/M01 A2982 RMK A01 T03381005  RH  011%=      5-min Rain = 0
KBWS 271940Z 19015G29KT 34/01 A2982 RMK A01 T03390009  RH  013%=      5-min Rain = 0
KBWS 271945Z 21018G26KT 34/01 A2982 RMK A01 T03410006  RH  012%=      5-min Rain = 0
KBWS 271950Z 21018G26KT 34/00 A2982 RMK A01 T03420003  RH  012%=      5-min Rain = 0
KBWS 271955Z 20019G26KT 34/01 A2981 RMK A01 T03420010  RH  012%=      5-min Rain = 0
KBWS 272000Z 20018G25KT 34/02 A2981 RMK A01 T03410019  RH  013%=      5-min Rain = 0
KBWS 272005Z 20019G27KT 34/02 A2981 RMK A01 T03390022  RH  014%=      5-min Rain = 0
KBWS 272010Z 20017G23KT 34/03 A298 RMK A01 T03430027  RH  014%=      5-min Rain = 0
KBWS 272015Z 21018G31KT 34/02 A298 RMK A01 T03440018  RH  013%=      5-min Rain = 0
KBWS 272020Z 20023G30KT 35/02 A298 RMK A01 T03460016  RH  013%=      5-min Rain = 0
KBWS 272025Z 21018G27KT 34/02 A2979 RMK A01 T03400019  RH  013%=      5-min Rain = 0
KBWS 272030Z 20021G28KT 34/02 A2979 RMK A01 T03410018  RH  013%=      5-min Rain = 0
KBWS 272035Z 19020G28KT 34/03 A2979 RMK A01 T03410029  RH  014%=      5-min Rain = 0
KBWS 272040Z 20020G28KT 34/01 A2979 RMK A01 T03400014  RH  013%=      5-min Rain = 0
KBWS 272045Z 20019G27KT 35/01 A2978 RMK A01 T03450011  RH  012%=      5-min Rain = 0
KBWS 272050Z 21018G25KT 34/01 A2978 RMK A01 T03430005  RH  012%=      5-min Rain = 0
KBWS 272055Z 20017G24KT 35/M00 A2978 RMK A01 T03461001  RH  011%=      5-min Rain = 0
KBWS 272100Z 20019G25KT 35/00 A2978 RMK A01 T03460003  RH  011%=      5-min Rain = 0
KBWS 272105Z 19018G28KT 35/01 A2977 RMK A01 T03460011  RH  012%=      5-min Rain = 0
KBWS 272110Z 19021G26KT 35/01 A2977 RMK A01 T03460014  RH  012%=      5-min Rain = 0
KBWS 272115Z 20019G29KT 35/01 A2977 RMK A01 T03450008  RH  012%=      5-min Rain = 0
KBWS 272120Z 20017G26KT 35/01 A2976 RMK A01 T03470011  RH  012%=      5-min Rain = 0
KBWS 272125Z 19020G25KT 35/02 A2976 RMK A01 T03460016  RH  013%=      5-min Rain = 0
KBWS 272130Z 20019G25KT 35/02 A2976 RMK A01 T03480020  RH  013%=      5-min Rain = 0
KBWS 272135Z 21018G26KT 35/04 A2975 RMK A01 T03510037  RH  014%=      5-min Rain = 0
KBWS 272140Z 20020G26KT 35/05 A2975 RMK A01 T03470047  RH  016%=      5-min Rain = 0
KBWS 272145Z 18016KT 35/07 A2975 RMK A01 T03480066  RH  018%=      5-min Rain = 0
KBWS 272150Z 18019G26KT 35/08 A2975 RMK A01 T03450079  RH  020%=      5-min Rain = 0
KBWS 272155Z 17017G26KT 34/08 A2975 RMK A01 T03430079  RH  020%=      5-min Rain = 0
KBWS 272200Z 19015G22KT 34/07 A2974 RMK A01 T03430071  RH  019%=      5-min Rain = 0
KBWS 272205Z 20020G27KT 35/07 A2974 RMK A01 T03450067  RH  018%=      5-min Rain = 0
KBWS 272210Z 18022G29KT 34/08 A2974 RMK A01 T03350079  RH  021%=      5-min Rain = 0
KBWS 272215Z 18018G23KT 34/08 A2974 RMK A01 T03350079  RH  021%=      5-min Rain = 0
KBWS 272220Z 19017G22KT 34/08 A2974 RMK A01 T03350080  RH  021%=      5-min Rain = 0
KBWS 272225Z 19018G25KT 33/08 A2974 RMK A01 T03340081  RH  021%=      5-min Rain = 0
KBWS 272230Z 17020G26KT 33/08 A2974 RMK A01 T03320081  RH  022%=      5-min Rain = 0
KBWS 272235Z 18019G24KT 33/08 A2973 RMK A01 T03290082  RH  022%=      5-min Rain = 0
KBWS 272240Z 19020G26KT 34/08 A2973 RMK A01 T03350078  RH  021%=      5-min Rain = 0
KBWS 272245Z 18017G22KT 33/08 A2973 RMK A01 T03260083  RH  023%=      5-min Rain = 0
KBWS 272250Z 17018G26KT 33/09 A2973 RMK A01 T03280086  RH  023%=      5-min Rain = 0
KBWS 272255Z 17018G27KT 34/09 A2972 RMK A01 T03350085  RH  022%=      5-min Rain = 0
KBWS 272300Z 18019G26KT 34/08 A2972 RMK A01 T03380075  RH  020%=      5-min Rain = 0
KBWS 272305Z 18016G22KT 33/07 A2972 RMK A01 T03280069  RH  020%=      5-min Rain = 0
KBWS 272310Z 19016G24KT 34/07 A2972 RMK A01 T03370071  RH  020%=      5-min Rain = 0
KBWS 272315Z 19019KT 34/07 A2972 RMK A01 T03360066  RH  019%=      5-min Rain = 0
KBWS 272320Z 20016G21KT 34/07 A2972 RMK A01 T03350070  RH  020%=      5-min Rain = 0
KBWS 272325Z 19019G29KT 34/06 A2972 RMK A01 T03370061  RH  018%=      5-min Rain = 0
KBWS 272330Z 19015G20KT 34/06 A2972 RMK A01 T03390063  RH  018%=      5-min Rain = 0
KBWS 272335Z 18015G24KT 34/07 A2972 RMK A01 T03390069  RH  019%=      5-min Rain = 0
KBWS 272340Z 18017G23KT 34/08 A2972 RMK A01 T03360077  RH  021%=      5-min Rain = 0
KBWS 272345Z 17015G21KT 34/08 A2972 RMK A01 T03360084  RH  021%=      5-min Rain = 0
KBWS 272350Z 17018G26KT 33/09 A2971 RMK A01 T03340089  RH  022%=      5-min Rain = 0
KBWS 272355Z 17020G25KT 33/09 A2971 RMK A01 T03310091  RH  023%=      5-min Rain = 0
KBWS 280000Z 18021G26KT 33/08 A2971 RMK A01 T03290079  RH  022%=      5-min Rain = 0
KBWS 280005Z 18018KT 33/09 A2971 RMK A01 T03270086  RH  023%=      5-min Rain = 0
KBWS 280010Z 18017KT 32/09 A2971 RMK A01 T03210089  RH  024%=      5-min Rain = 0
KBWS 280015Z 17018G23KT 32/09 A2971 RMK A01 T03210089  RH  024%=      5-min Rain = 0
KBWS 280020Z 17019KT 32/09 A2971 RMK A01 T03220090  RH  024%=      5-min Rain = 0
KBWS 280025Z 17017G23KT 32/09 A2971 RMK A01 T03180091  RH  025%=      5-min Rain = 0
KBWS 280030Z 17018G24KT 32/09 A2971 RMK A01 T03180094  RH  026%=      5-min Rain = 0
KBWS 280035Z 17018G24KT 32/10 A2971 RMK A01 T03160096  RH  026%=      5-min Rain = 0
KBWS 280040Z 17020G25KT 32/10 A2971 RMK A01 T03160096  RH  026%=      5-min Rain = 0
KBWS 280045Z 17019G25KT 31/10 A297 RMK A01 T03130096  RH  026%=      5-min Rain = 0
KBWS 280050Z 17018G26KT 31/10 A297 RMK A01 T03140099  RH  027%=      5-min Rain = 0
KBWS 280055Z 17019G25KT 31/10 A2971 RMK A01 T03140099  RH  027%=      5-min Rain = 0
KBWS 280100Z 17017G22KT 31/10 A2971 RMK A01 T03120100  RH  027%=      5-min Rain = 0
KBWS 280105Z 17017KT 31/10 A2971 RMK A01 T03110102  RH  028%=      5-min Rain = 0
KBWS 280110Z 17014G19KT 31/10 A2971 RMK A01 T03090104  RH  029%=      5-min Rain = 0
KBWS 280115Z 17015G22KT 31/11 A2971 RMK A01 T03070110  RH  030%=      5-min Rain = 0
KBWS 280120Z 16018KT 31/12 A2971 RMK A01 T03050115  RH  032%=      5-min Rain = 0
KBWS 280125Z 16017KT 30/12 A2971 RMK A01 T03030117  RH  032%=      5-min Rain = 0
KBWS 280130Z 16016G21KT 30/12 A2971 RMK A01 T03010118  RH  033%=      5-min Rain = 0
KBWS 280135Z 16015KT 30/12 A2971 RMK A01 T02980120  RH  034%=      5-min Rain = 0
KBWS 280140Z 16018G23KT 30/13 A2971 RMK A01 T02960133  RH  038%=      5-min Rain = 0
KBWS 280145Z 16018G26KT 29/16 A2971 RMK A01 T02920157  RH  045%=      5-min Rain = 0
KBWS 280150Z 16019G25KT 29/17 A2971 RMK A01 T02890166  RH  048%=      5-min Rain = 0
KBWS 280155Z 16019G24KT 29/17 A2971 RMK A01 T02870166  RH  049%=      5-min Rain = 0
KBWS 280200Z 16016KT 28/17 A2971 RMK A01 T02840167  RH  050%=      5-min Rain = 0
KBWS 280205Z 16014G19KT 28/17 A2971 RMK A01 T02810168  RH  052%=      5-min Rain = 0
KBWS 280210Z 16019G24KT 28/17 A2971 RMK A01 T02790169  RH  052%=      5-min Rain = 0
KBWS 280215Z 16019G24KT 28/17 A2971 RMK A01 T02780171  RH  053%=      5-min Rain = 0
KBWS 280220Z 16017G25KT 28/17 A2971 RMK A01 T02750172  RH  055%=      5-min Rain = 0
KBWS 280225Z 16018KT 27/17 A2971 RMK A01 T02730173  RH  056%=      5-min Rain = 0
KBWS 280230Z 16018G25KT 27/17 A2971 RMK A01 T02710173  RH  056%=      5-min Rain = 0
KBWS 280235Z 16019G24KT 27/17 A2971 RMK A01 T02700172  RH  056%=      5-min Rain = 0
KBWS 280240Z 16017G22KT 27/17 A2972 RMK A01 T02690171  RH  056%=      5-min Rain = 0
KBWS 280245Z 16017G24KT 27/17 A2972 RMK A01 T02670171  RH  057%=      5-min Rain = 0
KBWS 280250Z 16016G21KT 27/17 A2972 RMK A01 T02650171  RH  058%=      5-min Rain = 0
KBWS 280255Z 16016G21KT 26/17 A2972 RMK A01 T02640172  RH  058%=      5-min Rain = 0
KBWS 280300Z 16016G21KT 26/17 A2972 RMK A01 T02620172  RH  059%=      5-min Rain = 0
KBWS 280305Z 15016G21KT 26/17 A2972 RMK A01 T02610173  RH  060%=      5-min Rain = 0
KBWS 280310Z 15016G21KT 26/17 A2972 RMK A01 T02600174  RH  061%=      5-min Rain = 0
KBWS 280315Z 15015KT 26/18 A2972 RMK A01 T02580175  RH  062%=      5-min Rain = 0
KBWS 280320Z 15015KT 26/18 A2972 RMK A01 T02560175  RH  062%=      5-min Rain = 0
KBWS 280325Z 16016KT 26/18 A2971 RMK A01 T02550175  RH  062%=      5-min Rain = 0
KBWS 280330Z 16016KT 26/18 A2972 RMK A01 T02550175  RH  063%=      5-min Rain = 0
KBWS 280335Z 16016G21KT 25/18 A2972 RMK A01 T02540176  RH  064%=      5-min Rain = 0
KBWS 280340Z 16016KT 25/18 A2972 RMK A01 T02530176  RH  064%=      5-min Rain = 0
KBWS 280345Z 16016G22KT 25/18 A2972 RMK A01 T02520176  RH  065%=      5-min Rain = 0
KBWS 280350Z 16015G20KT 25/18 A2972 RMK A01 T02510177  RH  065%=      5-min Rain = 0
KBWS 280355Z 15014KT 25/18 A2973 RMK A01 T02490177  RH  066%=      5-min Rain = 0
KBWS 280400Z 15014KT 25/18 A2973 RMK A01 T02480178  RH  067%=      5-min Rain = 0
KBWS 280405Z 16015KT 25/18 A2973 RMK A01 T02470179  RH  067%=      5-min Rain = 0
KBWS 280410Z 16014G19KT 25/18 A2973 RMK A01 T02460179  RH  068%=      5-min Rain = 0
KBWS 280415Z 16015KT 25/18 A2973 RMK A01 T02460180  RH  068%=      5-min Rain = 0
KBWS 280420Z 16015KT 25/18 A2973 RMK A01 T02460180  RH  068%=      5-min Rain = 0
KBWS 280425Z 17015G20KT 25/18 A2974 RMK A01 T02450180  RH  069%=      5-min Rain = 0
KBWS 280430Z 17015KT 25/18 A2974 RMK A01 T02450180  RH  069%=      5-min Rain = 0
KBWS 280435Z 17016G21KT 25/18 A2974 RMK A01 T02450180  RH  069%=      5-min Rain = 0
KBWS 280440Z 17015G20KT 25/18 A2974 RMK A01 T02450180  RH  069%=      5-min Rain = 0
KBWS 280445Z 17014KT 24/18 A2974 RMK A01 T02430180  RH  070%=      5-min Rain = 0
KBWS 280450Z 17013KT 24/18 A2974 RMK A01 T02420180  RH  070%=      5-min Rain = 0
KBWS 280455Z 17015KT 24/18 A2974 RMK A01 T02420180  RH  070%=      5-min Rain = 0

Page generated in 0.0101 seconds.